Sylvia, KS (67581)

6:57 PM CDT on July 23, 2014 (GMT -0500)
RAWS STAFFORD KS US (MQNRK1) Elev 1768 ft | 38.14 °N, 98.48 °W | Change Station

Current weather conditions updated 58 minutes ago

Clear
Clear
90 °F
Feels Like 92 °F
N
6
Wind Variable Wind from ENE
Gusts 11.0 mph

Tomorrow is forecast to be Warmer than today.

Today
High -- | Low -- °F
--% Chance of Precip.
Yesterday
High -- | Low -- °F
Precip. -- in
6:29 AM 8:50 PM
Waning Crescent, 8% visible
Pressure 30.12 in
Visibility 10.0 miles
Clouds Clear
Heat Index 92 °F
Dew Point 66 °F
Humidity 45%
Rainfall 0.00 in
Snow Depth Not available.
UV 2 out of 12
Pollen 5.20 out of 12
Air Quality Not available.
Flu Activity Not available.
METAR KPTT 232335Z AUTO 11005KT 10SM CLR 32/19 A3012 RMK AO2

More Conditions Fewer Conditions

Pressure 30.12 in
Visibility 10.0 miles
Clouds Clear
Heat Index 92 °F
Dew Point 66 °F
Humidity 45%
Rainfall 0.00 in
Snow Depth Not available.
UV 2 out of 12
Pollen 5.20 out of 12
Air Quality Not available.
Flu Activity Not available.
METAR KPTT 232335Z AUTO 11005KT 10SM CLR 32/19 A3012 RMK AO2

More Conditions Fewer Conditions

10-Day Weather Forecast

Almanac

Astronomy

Jul. 23, 2014 Rise Set
Actual Time 6:29 AM CDT 8:50 PM CDT
Civil Twilight 5:59 AM CDT 9:20 PM CDT
Nautical Twilight 5:22 AM CDT 9:57 PM CDT
Astronomical Twilight 4:41 AM CDT 10:37 PM CDT
Moon 3:49 AM CDT 6:20 PM CDT
Length of Visible Light 15h 20m
Length of Day
14h 21m
Tomorrow will be 1m 34s shorter.
Waning Crescent, 8% of the Moon is Illuminated
Today
Waning Crescent
Jul 26
New
Aug 3
First Quarter
Aug 10
Full
Aug 17
Last Quarter

Today's Extremes

State Highs State Lows

Community

WunderPhotos

Upload Photos

1,736,817 photos uploaded!

Nearby

Snow Depth

Station Depth Elevation
No new snow has been reported.

Earthquake Activity

City Distance Mag. Time & Date
Helena, Oklahoma 91 miles 3.2 8:41 AM CDT
2014-07-18
Perry, Oklahoma 139 miles 2.8 8:37 PM CDT
2014-07-17
Cherokee, Oklahoma 89 miles 2.5 10:35 AM CDT
2014-07-17
Caldwell, Kansas 67 miles 3.6 5:40 AM CDT
2014-07-17
Minimum magnitude displayed is 2.5.

Coastal Water Temperatures

Place Temperature
No Stations Reporting

Nearby Weather Stations

Station Location Temp. Heat Index Dew Point Humidity Wind Precip. Elev Updated Type
RAWS STAFFORD KS, Hudson, KS 90 °F 92 °F 66 °F 45% ENE  at  6 mph 0.00 in / hr 1768 ft 5:59 PM CDT MADIS
MesoWest PRTRGE , Partridge, KS 90 °F 87 °F - - North  at  - 0.00 in / hr 1623 ft 5:10 PM CDT MADIS
MesoWest PRESTN , Pratt, KS 87 °F 84 °F - - North  at  - 0.00 in / hr 1878 ft 4:45 PM CDT MADIS

Show More Stations Show Fewer Stations